Time;durP1;ratioP1;P1;durP2;ratioP2;P2;SDS_P1;SDS_P2;PMS_P1;PMS_P2;Temp;Humidity;BMP_temperature;BMP_pressure;BME280_temperature;BME280_humidity;BME280_pressure;Samples;Min_cycle;Max_cycle;Signal;HPM_P1;HPM_P2
2021/03/27 00:00:08;;;;;;;5.53;3.30;;;9.90;99.90;;;;;;12360354;28;20054;-42
2021/03/27 00:06:16;;;;;;;4.82;3.45;;;10.00;99.90;;;;;;12367015;28;20058;-42
2021/03/27 00:12:29;;;;;;;6.15;3.13;;;9.90;99.90;;;;;;12371110;28;20054;-42
2021/03/27 00:19:00;;;;;;;7.50;3.90;;;9.90;99.90;;;;;;12360659;28;20509;-42
2021/03/27 00:25:15;;;;;;;8.60;3.45;;;10.00;99.90;;;;;;12370498;28;20057;-43
2021/03/27 00:31:22;;;;;;;6.95;3.60;;;10.00;99.90;;;;;;12364791;28;20092;-42
2021/03/27 00:37:27;;;;;;;5.55;3.30;;;10.00;99.90;;;;;;12358401;28;20180;-42
2021/03/27 00:43:34;;;;;;;5.95;3.38;;;9.90;99.90;;;;;;12368182;28;20070;-43
2021/03/27 00:49:40;;;;;;;8.02;4.00;;;9.90;99.90;;;;;;12357099;28;20058;-42
2021/03/27 00:55:50;;;;;;;5.78;3.20;;;9.90;99.90;;;;;;12364190;28;20078;-42
2021/03/27 01:01:57;;;;;;;10.32;3.72;;;10.00;99.90;;;;;;12367021;28;20129;-42
2021/03/27 01:08:00;;;;;;;5.78;3.53;;;10.00;99.90;;;;;;12362250;28;20100;-43
2021/03/27 01:14:08;;;;;;;7.20;3.78;;;10.00;99.90;;;;;;12356057;28;20059;-42
2021/03/27 01:20:25;;;;;;;10.00;3.90;;;9.80;99.90;;;;;;12365334;28;20061;-44
2021/03/27 01:26:36;;;;;;;5.80;3.40;;;9.90;99.90;;;;;;12368162;28;20046;-42
2021/03/27 01:32:49;;;;;;;5.97;3.55;;;9.90;99.90;;;;;;12363973;28;20309;-42
2021/03/27 01:39:05;;;;;;;6.40;3.50;;;9.90;99.90;;;;;;12368341;28;20102;-42
2021/03/27 01:45:24;;;;;;;6.40;3.80;;;10.10;99.90;;;;;;12374447;28;20439;-42
2021/03/27 01:51:44;;;;;;;8.82;4.38;;;10.20;99.90;;;;;;12369578;28;20145;-42
2021/03/27 01:57:55;;;;;;;12.98;4.90;;;9.80;99.90;;;;;;12373792;28;20453;-42
2021/03/27 02:04:09;;;;;;;9.73;5.68;;;9.50;99.90;;;;;;12365359;28;20112;-42
2021/03/27 02:10:13;;;;;;;7.33;5.00;;;9.20;99.90;;;;;;12367467;28;20061;-42
2021/03/27 02:16:42;;;;;;;8.23;5.57;;;8.90;99.90;;;;;;12372789;28;20360;-42
2021/03/27 02:23:04;;;;;;;7.63;5.32;;;8.80;99.90;;;;;;12373107;28;20310;-42
2021/03/27 02:29:34;;;;;;;9.85;5.97;;;8.90;99.90;;;;;;12366217;28;20050;-42
2021/03/27 02:35:45;;;;;;;4.45;3.58;;;8.80;99.90;;;;;;12369792;28;20137;-43
2021/03/27 02:42:07;;;;;;;3.85;1.92;;;8.40;99.90;;;;;;12368630;28;20062;-42
2021/03/27 02:48:20;;;;;;;5.25;2.10;;;7.40;99.90;;;;;;12366057;28;20050;-42
2021/03/27 02:54:23;;;;;;;3.15;2.03;;;7.00;99.90;;;;;;12367035;28;20189;-43
2021/03/27 03:01:04;;;;;;;4.05;2.00;;;6.70;99.90;;;;;;12373621;28;20133;-42
2021/03/27 03:07:32;;;;;;;4.05;1.90;;;6.70;99.90;;;;;;12364007;28;20046;-42
2021/03/27 03:13:55;;;;;;;2.95;1.85;;;6.60;99.90;;;;;;12364113;28;20375;-41
2021/03/27 03:20:32;;;;;;;3.05;1.65;;;6.50;99.90;;;;;;12370521;28;20170;-42
2021/03/27 03:26:55;;;;;;;2.58;1.73;;;6.40;99.90;;;;;;12358986;28;20121;-42
2021/03/27 03:33:23;;;;;;;2.95;1.83;;;6.40;99.90;;;;;;12379827;28;20086;-42
2021/03/27 03:39:56;;;;;;;3.70;2.20;;;6.40;99.90;;;;;;12367445;28;20444;-43
2021/03/27 03:46:25;;;;;;;5.28;3.15;;;6.40;99.90;;;;;;12370094;28;20432;-42
2021/03/27 03:52:33;;;;;;;4.43;2.88;;;6.40;99.90;;;;;;12373246;28;20084;-42
2021/03/27 03:58:58;;;;;;;7.32;3.80;;;6.40;99.90;;;;;;12364502;28;20045;-42
2021/03/27 04:05:05;;;;;;;6.17;4.20;;;6.20;99.90;;;;;;12365936;28;20161;-42
2021/03/27 04:11:46;;;;;;;5.40;3.90;;;6.10;99.90;;;;;;12372886;28;20062;-42
2021/03/27 04:18:08;;;;;;;4.72;3.50;;;6.10;99.90;;;;;;12368338;28;20034;-42
2021/03/27 04:24:26;;;;;;;4.93;3.58;;;6.00;99.90;;;;;;12374744;28;20054;-42
2021/03/27 04:30:48;;;;;;;6.47;3.45;;;6.00;99.90;;;;;;12373964;28;20104;-43
2021/03/27 04:37:08;;;;;;;4.70;3.47;;;5.80;99.90;;;;;;12367471;28;20056;-42
2021/03/27 04:43:29;;;;;;;6.22;4.65;;;5.80;99.90;;;;;;12367411;28;20056;-42
2021/03/27 04:49:51;;;;;;;8.40;5.70;;;5.80;99.90;;;;;;12378134;28;20045;-42
2021/03/27 04:56:19;;;;;;;7.05;5.20;;;5.80;99.90;;;;;;12360611;28;20446;-43
2021/03/27 05:02:33;;;;;;;11.77;6.32;;;5.80;99.90;;;;;;12363480;28;20144;-42
2021/03/27 05:08:58;;;;;;;9.80;6.70;;;5.80;99.90;;;;;;12365521;28;20867;-44
2021/03/27 05:15:23;;;;;;;11.73;7.05;;;5.70;99.90;;;;;;12371055;28;20046;-42
2021/03/27 05:21:36;;;;;;;13.13;7.57;;;5.80;99.90;;;;;;12364318;28;20133;-42
2021/03/27 05:27:56;;;;;;;10.70;7.22;;;5.90;99.90;;;;;;12371251;28;20054;-42
2021/03/27 05:34:13;;;;;;;13.52;7.10;;;5.80;99.90;;;;;;12366900;28;20042;-42
2021/03/27 05:40:33;;;;;;;12.65;6.57;;;5.80;99.90;;;;;;12359429;28;20078;-42
2021/03/27 05:47:11;;;;;;;9.45;4.10;;;5.80;99.90;;;;;;12366501;28;20120;-42
2021/03/27 05:53:38;;;;;;;7.57;4.03;;;5.60;99.90;;;;;;12352985;28;20498;-42
2021/03/27 05:59:51;;;;;;;7.50;2.80;;;5.60;99.90;;;;;;12360809;28;20157;-43
2021/03/27 06:06:14;;;;;;;5.28;2.60;;;5.30;99.90;;;;;;12357609;28;20069;-42
2021/03/27 06:12:50;;;;;;;7.47;2.80;;;5.40;99.90;;;;;;12365098;28;20209;-42
2021/03/27 06:19:16;;;;;;;5.78;2.83;;;5.30;99.90;;;;;;12370187;28;20050;-42
2021/03/27 06:25:56;;;;;;;8.70;3.97;;;4.90;99.90;;;;;;12372227;28;20054;-43
2021/03/27 06:32:25;;;;;;;8.75;3.60;;;5.00;99.90;;;;;;12371585;28;20213;-42
2021/03/27 06:38:45;;;;;;;13.65;4.65;;;5.20;99.90;;;;;;12372224;28;20066;-43
2021/03/27 06:44:52;;;;;;;10.60;4.75;;;5.50;99.90;;;;;;12374234;28;20092;-42
2021/03/27 06:51:18;;;;;;;10.80;5.32;;;5.70;99.90;;;;;;12367996;28;20046;-43
2021/03/27 06:57:25;;;;;;;11.73;5.40;;;5.90;99.90;;;;;;12369718;28;20079;-42
2021/03/27 07:03:58;;;;;;;13.13;5.03;;;6.00;99.90;;;;;;12360931;28;20042;-42
2021/03/27 07:10:12;;;;;;;12.77;5.55;;;6.30;99.90;;;;;;12372113;28;20053;-44
2021/03/27 07:16:44;;;;;;;14.32;6.13;;;6.40;99.90;;;;;;12365461;28;20491;-42
2021/03/27 07:22:50;;;;;;;15.75;8.02;;;6.40;99.90;;;;;;12373534;28;20042;-42
2021/03/27 07:29:31;;;;;;;18.42;9.45;;;6.40;99.90;;;;;;12376837;28;20099;-42
2021/03/27 07:36:18;;;;;;;21.25;10.38;;;6.00;99.90;;;;;;12369761;28;20078;-42
2021/03/27 07:42:35;;;;;;;24.25;13.80;;;5.80;99.90;;;;;;12374970;28;20050;-42
2021/03/27 07:48:54;;;;;;;17.77;11.60;;;5.80;99.90;;;;;;12371035;28;20057;-42
2021/03/27 07:54:56;;;;;;;22.40;12.20;;;5.90;99.90;;;;;;12368068;28;20415;-42
2021/03/27 08:01:30;;;;;;;20.15;11.35;;;6.00;99.90;;;;;;12350783;28;20128;-42
2021/03/27 08:07:41;;;;;;;21.13;9.30;;;6.10;99.90;;;;;;12360504;28;20104;-42
2021/03/27 08:14:00;;;;;;;13.73;8.25;;;6.20;99.90;;;;;;12355496;28;20088;-43
2021/03/27 08:20:23;;;;;;;12.90;8.25;;;6.30;99.90;;;;;;12362642;28;20077;-42
2021/03/27 08:27:01;;;;;;;14.38;6.53;;;6.30;99.90;;;;;;12371431;28;20137;-43
2021/03/27 08:33:14;;;;;;;12.38;5.45;;;6.60;99.90;;;;;;12359297;28;20062;-42
2021/03/27 08:39:21;;;;;;;9.02;4.05;;;6.70;99.90;;;;;;12366514;28;20133;-42
2021/03/27 08:45:25;;;;;;;8.95;3.83;;;6.70;99.90;;;;;;12359576;28;20117;-42
2021/03/27 08:51:26;;;;;;;5.55;1.10;;;6.60;99.90;;;;;;12366587;28;20107;-41
2021/03/27 08:58:04;;;;;;;2.65;1.00;;;4.40;99.90;;;;;;12364832;28;20670;-41
2021/03/27 09:04:41;;;;;;;4.85;1.13;;;3.30;99.90;;;;;;12364848;28;20061;-41
2021/03/27 09:11:13;;;;;;;5.07;1.33;;;3.30;99.90;;;;;;12369645;28;20477;-50
2021/03/27 09:17:24;;;;;;;4.00;1.63;;;3.20;99.90;;;;;;12355566;28;20062;-42
2021/03/27 09:23:32;;;;;;;4.55;1.35;;;3.10;99.90;;;;;;12368052;28;20365;-42
2021/03/27 09:29:34;;;;;;;4.85;1.00;;;3.30;99.90;;;;;;12365922;28;20050;-42
2021/03/27 09:36:06;;;;;;;6.60;1.33;;;3.40;99.90;;;;;;12363447;28;20081;-42
2021/03/27 09:42:24;;;;;;;6.47;1.90;;;3.70;99.90;;;;;;12370233;28;20050;-42
2021/03/27 09:48:44;;;;;;;4.97;1.38;;;4.00;99.90;;;;;;12368295;28;20054;-42
2021/03/27 09:55:21;;;;;;;8.30;2.25;;;4.30;99.90;;;;;;12364825;28;20124;-42
2021/03/27 10:01:44;;;;;;;7.25;2.13;;;4.70;99.90;;;;;;12367472;28;20058;-42
2021/03/27 10:08:03;;;;;;;6.57;1.98;;;5.10;99.90;;;;;;12373757;28;20154;-42
2021/03/27 10:14:22;;;;;;;5.10;1.60;;;5.20;99.90;;;;;;12366405;28;20243;-42
2021/03/27 10:20:39;;;;;;;7.93;1.75;;;5.90;99.90;;;;;;12366723;28;20414;-42
2021/03/27 10:26:44;;;;;;;6.43;1.60;;;6.30;99.90;;;;;;12375336;28;20050;-42
2021/03/27 10:33:10;;;;;;;5.95;1.48;;;6.50;99.90;;;;;;12377262;28;20799;-43
2021/03/27 10:39:39;;;;;;;7.25;1.73;;;6.70;99.90;;;;;;12381134;28;20046;-42
2021/03/27 10:46:14;;;;;;;5.20;1.67;;;6.80;99.90;;;;;;12371095;28;20046;-42
2021/03/27 10:52:24;;;;;;;6.57;1.90;;;7.00;99.90;;;;;;12372424;28;20535;-42
2021/03/27 10:58:59;;;;;;;6.50;1.73;;;6.80;99.90;;;;;;12346241;28;20096;-43
2021/03/27 11:05:25;;;;;;;9.43;1.73;;;7.10;99.90;;;;;;12371712;28;20055;-42
2021/03/27 11:11:40;;;;;;;8.23;1.90;;;7.30;99.90;;;;;;12366351;28;20046;-42
2021/03/27 11:17:49;;;;;;;;;;;7.70;99.90;;;;;;12375621;28;20605;-42
2021/03/27 11:24:05;;;;;;;9.80;2.17;;;7.70;99.90;;;;;;12371141;28;19930;-43
2021/03/27 11:30:18;;;;;;;7.00;2.05;;;8.10;99.90;;;;;;12377563;28;20161;-42
2021/03/27 11:36:38;;;;;;;7.50;2.28;;;8.10;99.90;;;;;;12376182;28;20670;-42
2021/03/27 11:42:48;;;;;;;10.02;2.90;;;8.00;99.90;;;;;;12370927;28;20049;-42
2021/03/27 11:49:16;;;;;;;9.77;2.10;;;8.00;99.90;;;;;;12366880;28;20077;-43
2021/03/27 11:55:29;;;;;;;2.33;0.50;;;7.20;99.90;;;;;;12367430;28;20041;-42
2021/03/27 12:01:36;;;;;;;1.45;0.50;;;4.40;99.90;;;;;;12358593;28;20062;-41
2021/03/27 12:07:53;;;;;;;4.57;0.80;;;3.60;99.90;;;;;;12366138;28;20475;-41
2021/03/27 12:14:13;;;;;;;2.42;0.70;;;3.70;99.90;;;;;;12364977;28;20058;-43
2021/03/27 12:20:56;;;;;;;1.42;0.60;;;4.00;99.90;;;;;;12370824;28;20104;-41
2021/03/27 12:27:18;;;;;;;2.67;0.70;;;4.50;99.90;;;;;;12358640;28;20121;-41
2021/03/27 12:33:30;;;;;;;4.93;0.70;;;4.90;99.90;;;;;;12366871;28;20049;-42
2021/03/27 12:40:03;;;;;;;1.92;0.63;;;5.40;99.90;;;;;;12372516;28;20133;-42
2021/03/27 12:46:13;;;;;;;1.75;0.70;;;5.90;99.90;;;;;;12364452;28;20061;-42
2021/03/27 12:52:41;;;;;;;2.80;0.82;;;6.20;99.90;;;;;;12364791;28;20043;-42
2021/03/27 12:59:12;;;;;;;2.85;0.80;;;6.60;99.90;;;;;;12358320;28;20053;-42
2021/03/27 13:05:39;;;;;;;4.32;0.90;;;6.20;99.90;;;;;;12372470;28;20093;-43
2021/03/27 13:11:52;;;;;;;4.53;1.30;;;6.00;99.90;;;;;;12358584;28;20542;-42
2021/03/27 13:18:00;;;;;;;4.68;1.30;;;6.50;99.90;;;;;;12367458;28;20095;-42
2021/03/27 13:24:33;;;;;;;5.80;1.60;;;7.40;99.90;;;;;;12378853;28;20054;-43
2021/03/27 13:30:55;;;;;;;6.18;1.40;;;7.70;99.90;;;;;;12373675;28;20043;-44
2021/03/27 13:37:37;;;;;;;5.88;1.48;;;7.10;99.90;;;;;;12382831;28;20050;-42
2021/03/27 13:43:51;;;;;;;3.28;1.23;;;6.70;99.90;;;;;;12367892;28;20525;-42
2021/03/27 13:50:07;;;;;;;6.30;1.75;;;6.40;99.90;;;;;;12371907;28;20430;-43
2021/03/27 13:56:27;;;;;;;7.75;1.90;;;6.10;99.90;;;;;;12371835;28;20054;-42
2021/03/27 14:02:44;;;;;;;7.85;1.90;;;5.80;99.90;;;;;;12363807;28;20100;-42
2021/03/27 14:09:08;;;;;;;5.78;1.90;;;5.60;99.90;;;;;;12375739;28;20523;-42
2021/03/27 14:15:27;;;;;;;6.72;1.92;;;5.60;99.90;;;;;;12374969;28;20046;-42
2021/03/27 14:21:49;;;;;;;8.95;2.10;;;5.60;99.90;;;;;;12379841;28;20067;-43
2021/03/27 14:27:57;;;;;;;4.90;1.67;;;5.90;99.90;;;;;;12377412;28;20430;-42
2021/03/27 14:34:08;;;;;;;9.50;2.10;;;6.00;99.90;;;;;;12376240;28;20574;-43
2021/03/27 14:40:34;;;;;;;9.13;2.08;;;6.10;99.90;;;;;;12357582;28;20064;-41
2021/03/27 14:46:41;;;;;;;8.90;2.30;;;6.20;99.90;;;;;;12379837;28;20470;-42
2021/03/27 14:52:53;;;;;;;4.75;1.60;;;6.50;99.90;;;;;;12370615;28;20042;-42
2021/03/27 14:59:15;;;;;;;9.40;1.33;;;6.50;99.90;;;;;;12372685;28;20038;-42
2021/03/27 15:05:24;;;;;;;3.47;0.77;;;6.60;99.90;;;;;;12364352;28;20081;-42
2021/03/27 15:11:38;;;;;;;3.58;0.57;;;6.40;99.90;;;;;;12377119;28;20051;-43
2021/03/27 15:17:52;;;;;;;1.87;0.47;;;6.00;99.90;;;;;;12361453;28;20108;-41
2021/03/27 15:24:07;;;;;;;1.90;0.60;;;5.10;99.90;;;;;;12369425;28;20050;-42
2021/03/27 15:30:20;;;;;;;3.97;0.80;;;4.90;99.90;;;;;;12366943;28;20107;-41
2021/03/27 15:36:33;;;;;;;4.25;1.17;;;5.60;99.90;;;;;;12371450;28;20144;-41
2021/03/27 15:43:00;;;;;;;3.95;0.95;;;5.90;99.90;;;;;;12371095;28;20050;-42
2021/03/27 15:49:19;;;;;;;5.03;0.98;;;5.70;99.90;;;;;;12375526;28;20046;-41
2021/03/27 15:55:24;;;;;;;6.13;1.05;;;5.40;99.90;;;;;;12368152;28;20156;-40
2021/03/27 16:01:29;;;;;;;2.13;0.80;;;5.50;99.90;;;;;;12373587;28;20138;-42
2021/03/27 16:07:37;;;;;;;2.70;0.70;;;5.80;99.90;;;;;;12372849;28;20107;-42
2021/03/27 16:14:00;;;;;;;3.08;1.08;;;6.20;99.90;;;;;;12364063;28;20046;-42
2021/03/27 16:20:25;;;;;;;2.78;0.90;;;6.40;99.90;;;;;;12357792;28;20068;-42
2021/03/27 16:26:49;;;;;;;5.63;1.25;;;6.50;99.90;;;;;;12369971;28;20630;-42
2021/03/27 16:33:24;;;;;;;2.55;0.90;;;6.50;99.90;;;;;;12372398;28;20061;-42
2021/03/27 16:39:34;;;;;;;5.10;1.05;;;6.90;99.90;;;;;;12372140;28;20050;-42
2021/03/27 16:45:59;;;;;;;5.40;1.17;;;6.80;99.90;;;;;;12361681;28;20046;-42
2021/03/27 16:52:44;;;;;;;5.03;1.50;;;6.60;99.90;;;;;;12368388;28;20042;-42
2021/03/27 16:59:11;;;;;;;3.80;1.20;;;6.20;99.90;;;;;;12307437;28;20062;-42
2021/03/27 17:05:21;;;;;;;5.15;0.98;;;5.80;99.90;;;;;;12365525;28;20145;-42
2021/03/27 17:11:29;;;;;;;7.30;1.73;;;6.00;99.90;;;;;;12366231;28;20100;-43
2021/03/27 17:17:59;;;;;;;4.07;2.00;;;5.90;99.90;;;;;;12364133;28;21502;-42
2021/03/27 17:24:47;;;;;;;4.63;2.20;;;5.60;99.90;;;;;;12366688;28;20046;-42
2021/03/27 17:30:53;;;;;;;8.70;2.78;;;5.30;99.90;;;;;;12362390;28;20046;-43
2021/03/27 17:37:01;;;;;;;4.97;2.15;;;5.10;99.90;;;;;;12366120;28;20077;-42
2021/03/27 17:43:17;;;;;;;4.90;1.60;;;4.90;99.90;;;;;;12357020;28;20152;-44
2021/03/27 17:50:00;;;;;;;8.27;2.08;;;4.70;99.90;;;;;;12361598;28;20111;-42
2021/03/27 17:56:02;;;;;;;5.07;2.03;;;4.60;99.90;;;;;;12334298;28;20069;-42
2021/03/27 18:02:28;;;;;;;8.73;2.17;;;4.50;99.90;;;;;;12356415;28;20054;-43
2021/03/27 18:08:43;;;;;;;8.82;2.08;;;4.50;99.90;;;;;;12365198;28;20673;-42
2021/03/27 18:14:51;;;;;;;12.35;2.72;;;4.60;99.90;;;;;;12366607;28;20076;-42
2021/03/27 18:21:18;;;;;;;8.85;2.33;;;4.80;99.90;;;;;;12367507;28;20057;-42
2021/03/27 18:27:37;;;;;;;9.63;1.75;;;4.90;99.90;;;;;;12365090;28;20398;-42
2021/03/27 18:34:00;;;;;;;9.82;1.85;;;5.20;99.90;;;;;;12371387;28;20038;-42
2021/03/27 18:40:05;;;;;;;11.75;1.98;;;5.20;99.90;;;;;;12365066;28;20072;-43
2021/03/27 18:46:17;;;;;;;;;;;5.30;99.90;;;;;;12367003;28;20050;-42
2021/03/27 18:52:24;;;;;;;6.30;1.60;;;5.20;99.90;;;;;;12371980;28;20377;-41
2021/03/27 18:58:37;;;;;;;11.55;1.73;;;5.40;99.90;;;;;;12365146;28;20366;-41
2021/03/27 19:05:23;;;;;;;12.85;1.95;;;5.60;99.90;;;;;;12364625;28;20273;-42
2021/03/27 19:11:32;;;;;;;11.13;2.20;;;5.50;99.90;;;;;;12372176;28;20073;-41
2021/03/27 19:17:39;;;;;;;6.45;1.98;;;5.40;99.90;;;;;;12362389;28;20141;-42
2021/03/27 19:24:00;;;;;;;9.48;2.13;;;5.10;99.90;;;;;;12363205;28;20642;-42
2021/03/27 19:30:23;;;;;;;14.98;2.55;;;4.80;99.90;;;;;;12369277;28;20478;-41
2021/03/27 19:36:26;;;;;;;10.70;2.58;;;4.60;99.90;;;;;;12371083;28;20050;-42
2021/03/27 19:42:43;;;;;;;19.00;3.20;;;4.60;99.90;;;;;;12368268;28;20115;-42
2021/03/27 19:49:12;;;;;;;17.98;2.40;;;4.40;99.90;;;;;;12367485;28;20088;-42
2021/03/27 19:55:51;;;;;;;17.65;2.60;;;4.40;99.90;;;;;;12368791;28;20108;-43
2021/03/27 20:01:53;;;;;;;11.13;2.75;;;4.30;99.90;;;;;;12362380;28;20050;-42
2021/03/27 20:08:10;;;;;;;14.13;3.58;;;4.20;99.90;;;;;;12370697;28;20087;-45
2021/03/27 20:14:24;;;;;;;8.88;2.70;;;4.20;99.90;;;;;;12352963;28;20054;-42
2021/03/27 20:21:16;;;;;;;11.05;2.90;;;4.10;99.90;;;;;;12366070;28;20057;-42
2021/03/27 20:27:35;;;;;;;8.35;2.88;;;4.30;99.90;;;;;;12370134;28;20054;-42
2021/03/27 20:33:47;;;;;;;15.57;2.97;;;4.20;99.90;;;;;;12368034;28;20470;-42
2021/03/27 20:39:54;;;;;;;11.93;2.65;;;3.90;99.90;;;;;;12373471;28;20054;-43
2021/03/27 20:46:07;;;;;;;13.13;2.88;;;3.90;99.90;;;;;;12362746;28;20046;-42
2021/03/27 20:52:08;;;;;;;9.93;2.83;;;3.90;99.90;;;;;;12371326;28;20457;-42
2021/03/27 20:58:51;;;;;;;16.58;3.50;;;3.90;99.90;;;;;;12352734;28;20054;-42
2021/03/27 21:05:02;;;;;;;15.77;2.90;;;3.90;99.90;;;;;;12367262;28;20084;-43
2021/03/27 21:11:22;;;;;;;16.63;2.97;;;3.90;99.90;;;;;;12377965;28;20731;-42
2021/03/27 21:17:30;;;;;;;15.38;3.03;;;3.80;99.90;;;;;;12371855;28;20103;-42
2021/03/27 21:23:52;;;;;;;14.55;2.75;;;3.90;99.90;;;;;;12375187;28;20050;-42
2021/03/27 21:30:30;;;;;;;14.90;2.67;;;3.90;99.90;;;;;;12366392;28;20080;-42
2021/03/27 21:36:53;;;;;;;11.75;2.85;;;3.90;99.90;;;;;;12370625;28;20214;-41
2021/03/27 21:43:19;;;;;;;15.43;2.85;;;3.90;99.90;;;;;;12368625;28;20505;-43
2021/03/27 21:49:43;;;;;;;18.38;3.40;;;3.90;99.90;;;;;;12378117;28;20054;-42
2021/03/27 21:56:08;;;;;;;19.02;3.00;;;3.90;99.90;;;;;;12365728;28;20120;-42
2021/03/27 22:02:27;;;;;;;14.38;3.10;;;3.90;99.90;;;;;;12374011;28;20061;-42
2021/03/27 22:08:54;;;;;;;16.15;3.10;;;3.90;99.90;;;;;;12369454;28;20050;-42
2021/03/27 22:15:23;;;;;;;17.85;3.13;;;4.00;99.90;;;;;;12370878;28;20555;-41
2021/03/27 22:21:37;;;;;;;14.27;3.45;;;4.00;99.90;;;;;;12376516;28;20100;-41
2021/03/27 22:27:45;;;;;;;14.43;3.40;;;3.90;99.90;;;;;;12367837;28;20045;-42
2021/03/27 22:34:25;;;;;;;14.75;3.00;;;3.90;99.90;;;;;;12377638;28;20058;-42
2021/03/27 22:40:34;;;;;;;16.73;4.15;;;3.80;99.90;;;;;;12373177;28;20078;-44
2021/03/27 22:46:56;;;;;;;20.90;4.25;;;4.00;99.90;;;;;;12372910;28;20383;-41
2021/03/27 22:53:17;;;;;;;17.58;4.22;;;3.90;99.90;;;;;;12371283;28;20088;-42
2021/03/27 22:59:26;;;;;;;16.20;4.22;;;3.80;99.90;;;;;;12370542;28;20050;-41
2021/03/27 23:05:33;;;;;;;18.95;4.80;;;3.90;99.90;;;;;;12369075;28;20145;-41
2021/03/27 23:11:36;;;;;;;20.27;4.20;;;3.70;99.90;;;;;;12367154;28;20133;-43
2021/03/27 23:17:38;;;;;;;16.80;3.92;;;3.80;99.90;;;;;;12369190;28;20071;-41
2021/03/27 23:24:02;;;;;;;14.98;4.10;;;3.70;99.90;;;;;;12369542;28;20046;-41
2021/03/27 23:30:28;;;;;;;16.13;4.23;;;3.80;99.90;;;;;;12370695;28;20046;-42
2021/03/27 23:36:35;;;;;;;17.27;4.57;;;3.70;99.90;;;;;;12367329;28;21218;-42
2021/03/27 23:42:42;;;;;;;21.65;4.53;;;3.70;99.90;;;;;;12366314;28;20145;-42
2021/03/27 23:49:16;;;;;;;12.32;3.90;;;3.50;99.90;;;;;;12364900;28;20137;-41
2021/03/27 23:55:38;;;;;;;14.63;3.47;;;3.50;99.90;;;;;;12357404;28;20177;-42
